sensor_id;sensor_type;location;lat;lon;timestamp;P1;durP1;ratioP1;P2;durP2;ratioP2
6864;SDS011;3471;49.678;8.388;2023-10-09T00:02:04;10.10;;;5.95;;
6864;SDS011;3471;49.678;8.388;2023-10-09T00:04:34;13.55;;;6.05;;
6864;SDS011;3471;49.678;8.388;2023-10-09T00:07:03;8.65;;;6.38;;
6864;SDS011;3471;49.678;8.388;2023-10-09T00:09:33;20.85;;;8.45;;
6864;SDS011;3471;49.678;8.388;2023-10-09T00:12:14;16.38;;;12.75;;
6864;SDS011;3471;49.678;8.388;2023-10-09T00:14:41;15.25;;;12.30;;
6864;SDS011;3471;49.678;8.388;2023-10-09T00:17:12;16.13;;;10.43;;
6864;SDS011;3471;49.678;8.388;2023-10-09T00:19:39;15.63;;;13.40;;
6864;SDS011;3471;49.678;8.388;2023-10-09T00:22:07;9.45;;;8.52;;
6864;SDS011;3471;49.678;8.388;2023-10-09T00:24:36;25.93;;;13.23;;
6864;SDS011;3471;49.678;8.388;2023-10-09T00:27:09;7.23;;;6.20;;
6864;SDS011;3471;49.678;8.388;2023-10-09T00:29:44;4.63;;;4.13;;
6864;SDS011;3471;49.678;8.388;2023-10-09T00:32:13;7.03;;;5.50;;
6864;SDS011;3471;49.678;8.388;2023-10-09T00:34:51;9.20;;;6.10;;
6864;SDS011;3471;49.678;8.388;2023-10-09T00:37:17;7.40;;;4.90;;
6864;SDS011;3471;49.678;8.388;2023-10-09T00:39:47;12.57;;;7.15;;
6864;SDS011;3471;49.678;8.388;2023-10-09T00:42:20;6.30;;;5.28;;
6864;SDS011;3471;49.678;8.388;2023-10-09T00:44:58;14.43;;;6.78;;
6864;SDS011;3471;49.678;8.388;2023-10-09T00:47:32;14.35;;;10.60;;
6864;SDS011;3471;49.678;8.388;2023-10-09T00:50:03;15.88;;;11.00;;
6864;SDS011;3471;49.678;8.388;2023-10-09T00:52:40;14.02;;;9.77;;
6864;SDS011;3471;49.678;8.388;2023-10-09T00:55:26;19.55;;;12.95;;
6864;SDS011;3471;49.678;8.388;2023-10-09T00:58:14;18.85;;;12.77;;
6864;SDS011;3471;49.678;8.388;2023-10-09T01:00:48;21.17;;;14.43;;
6864;SDS011;3471;49.678;8.388;2023-10-09T01:03:17;20.02;;;14.43;;
6864;SDS011;3471;49.678;8.388;2023-10-09T01:05:54;29.40;;;19.95;;
6864;SDS011;3471;49.678;8.388;2023-10-09T01:08:27;34.67;;;21.92;;
6864;SDS011;3471;49.678;8.388;2023-10-09T01:11:11;29.73;;;21.40;;
6864;SDS011;3471;49.678;8.388;2023-10-09T01:13:44;20.70;;;16.50;;
6864;SDS011;3471;49.678;8.388;2023-10-09T01:16:14;18.40;;;12.85;;
6864;SDS011;3471;49.678;8.388;2023-10-09T01:18:43;16.33;;;12.23;;
6864;SDS011;3471;49.678;8.388;2023-10-09T01:21:10;10.88;;;7.93;;
6864;SDS011;3471;49.678;8.388;2023-10-09T01:23:41;9.02;;;8.05;;
6864;SDS011;3471;49.678;8.388;2023-10-09T01:26:28;8.80;;;6.55;;
6864;SDS011;3471;49.678;8.388;2023-10-09T01:29:19;10.57;;;9.30;;
6864;SDS011;3471;49.678;8.388;2023-10-09T01:34:30;8.10;;;6.37;;
6864;SDS011;3471;49.678;8.388;2023-10-09T01:37:15;8.68;;;7.25;;
6864;SDS011;3471;49.678;8.388;2023-10-09T01:39:53;6.53;;;5.60;;
6864;SDS011;3471;49.678;8.388;2023-10-09T01:42:23;10.90;;;7.65;;
6864;SDS011;3471;49.678;8.388;2023-10-09T01:44:55;10.52;;;7.72;;
6864;SDS011;3471;49.678;8.388;2023-10-09T01:47:23;7.30;;;6.60;;
6864;SDS011;3471;49.678;8.388;2023-10-09T01:49:50;9.50;;;8.63;;
6864;SDS011;3471;49.678;8.388;2023-10-09T01:52:18;10.87;;;8.23;;
6864;SDS011;3471;49.678;8.388;2023-10-09T01:54:46;20.67;;;9.93;;
6864;SDS011;3471;49.678;8.388;2023-10-09T01:57:15;12.80;;;9.27;;
6864;SDS011;3471;49.678;8.388;2023-10-09T01:59:48;12.47;;;10.13;;
6864;SDS011;3471;49.678;8.388;2023-10-09T02:02:14;18.27;;;9.85;;
6864;SDS011;3471;49.678;8.388;2023-10-09T02:05:05;11.57;;;10.37;;
6864;SDS011;3471;49.678;8.388;2023-10-09T02:07:36;26.05;;;12.13;;
6864;SDS011;3471;49.678;8.388;2023-10-09T02:10:20;16.83;;;11.80;;
6864;SDS011;3471;49.678;8.388;2023-10-09T02:12:57;19.45;;;9.75;;
6864;SDS011;3471;49.678;8.388;2023-10-09T02:15:26;17.80;;;11.87;;
6864;SDS011;3471;49.678;8.388;2023-10-09T02:18:07;16.58;;;10.80;;
6864;SDS011;3471;49.678;8.388;2023-10-09T02:20:43;20.00;;;11.90;;
6864;SDS011;3471;49.678;8.388;2023-10-09T02:23:20;19.70;;;10.65;;
6864;SDS011;3471;49.678;8.388;2023-10-09T02:25:49;12.18;;;10.13;;
6864;SDS011;3471;49.678;8.388;2023-10-09T02:28:18;15.60;;;10.27;;
6864;SDS011;3471;49.678;8.388;2023-10-09T02:30:44;14.18;;;10.95;;
6864;SDS011;3471;49.678;8.388;2023-10-09T02:33:13;19.15;;;12.45;;
6864;SDS011;3471;49.678;8.388;2023-10-09T02:35:52;19.40;;;12.13;;
6864;SDS011;3471;49.678;8.388;2023-10-09T02:38:19;12.80;;;9.32;;
6864;SDS011;3471;49.678;8.388;2023-10-09T02:40:49;13.35;;;10.27;;
6864;SDS011;3471;49.678;8.388;2023-10-09T02:43:28;10.50;;;8.90;;
6864;SDS011;3471;49.678;8.388;2023-10-09T02:46:13;18.63;;;11.02;;
6864;SDS011;3471;49.678;8.388;2023-10-09T02:48:43;17.48;;;9.68;;
6864;SDS011;3471;49.678;8.388;2023-10-09T02:51:22;17.52;;;11.23;;
6864;SDS011;3471;49.678;8.388;2023-10-09T02:54:01;12.00;;;8.83;;
6864;SDS011;3471;49.678;8.388;2023-10-09T02:56:52;18.95;;;10.05;;
6864;SDS011;3471;49.678;8.388;2023-10-09T02:59:34;11.65;;;9.30;;
6864;SDS011;3471;49.678;8.388;2023-10-09T03:02:02;15.35;;;10.20;;
6864;SDS011;3471;49.678;8.388;2023-10-09T03:04:27;17.95;;;10.10;;
6864;SDS011;3471;49.678;8.388;2023-10-09T03:06:56;16.95;;;9.05;;
6864;SDS011;3471;49.678;8.388;2023-10-09T03:09:23;15.90;;;10.80;;
6864;SDS011;3471;49.678;8.388;2023-10-09T03:11:56;13.80;;;9.63;;
6864;SDS011;3471;49.678;8.388;2023-10-09T03:14:34;12.63;;;9.43;;
6864;SDS011;3471;49.678;8.388;2023-10-09T03:17:03;13.65;;;7.93;;
6864;SDS011;3471;49.678;8.388;2023-10-09T03:19:29;14.80;;;8.90;;
6864;SDS011;3471;49.678;8.388;2023-10-09T03:22:02;13.85;;;8.75;;
6864;SDS011;3471;49.678;8.388;2023-10-09T03:24:35;20.17;;;10.18;;
6864;SDS011;3471;49.678;8.388;2023-10-09T03:27:02;12.30;;;8.55;;
6864;SDS011;3471;49.678;8.388;2023-10-09T03:29:28;10.00;;;6.90;;
6864;SDS011;3471;49.678;8.388;2023-10-09T03:31:54;9.00;;;8.10;;
6864;SDS011;3471;49.678;8.388;2023-10-09T03:34:21;14.93;;;9.52;;
6864;SDS011;3471;49.678;8.388;2023-10-09T03:36:48;13.50;;;8.55;;
6864;SDS011;3471;49.678;8.388;2023-10-09T03:39:24;11.40;;;7.88;;
6864;SDS011;3471;49.678;8.388;2023-10-09T03:42:12;14.60;;;9.15;;
6864;SDS011;3471;49.678;8.388;2023-10-09T03:44:44;10.97;;;8.20;;
6864;SDS011;3471;49.678;8.388;2023-10-09T03:47:14;18.90;;;8.93;;
6864;SDS011;3471;49.678;8.388;2023-10-09T03:49:42;14.52;;;8.65;;
6864;SDS011;3471;49.678;8.388;2023-10-09T03:52:08;10.32;;;8.00;;
6864;SDS011;3471;49.678;8.388;2023-10-09T03:54:34;13.55;;;8.88;;
6864;SDS011;3471;49.678;8.388;2023-10-09T03:57:00;11.13;;;8.07;;
6864;SDS011;3471;49.678;8.388;2023-10-09T03:59:26;13.40;;;8.23;;
6864;SDS011;3471;49.678;8.388;2023-10-09T04:01:55;8.23;;;7.43;;
6864;SDS011;3471;49.678;8.388;2023-10-09T04:04:23;13.35;;;9.80;;
6864;SDS011;3471;49.678;8.388;2023-10-09T04:06:49;12.55;;;8.02;;
6864;SDS011;3471;49.678;8.388;2023-10-09T04:09:18;16.55;;;7.80;;
6864;SDS011;3471;49.678;8.388;2023-10-09T04:11:47;7.53;;;6.77;;
6864;SDS011;3471;49.678;8.388;2023-10-09T04:14:35;13.30;;;8.02;;
6864;SDS011;3471;49.678;8.388;2023-10-09T04:17:33;11.63;;;7.80;;
6864;SDS011;3471;49.678;8.388;2023-10-09T04:20:00;11.48;;;7.60;;
6864;SDS011;3471;49.678;8.388;2023-10-09T04:22:41;12.65;;;7.72;;
6864;SDS011;3471;49.678;8.388;2023-10-09T04:25:19;16.27;;;8.00;;
6864;SDS011;3471;49.678;8.388;2023-10-09T04:27:56;9.73;;;6.68;;
6864;SDS011;3471;49.678;8.388;2023-10-09T04:30:38;20.13;;;8.23;;
6864;SDS011;3471;49.678;8.388;2023-10-09T04:33:12;11.63;;;7.80;;
6864;SDS011;3471;49.678;8.388;2023-10-09T04:36:03;8.18;;;6.63;;
6864;SDS011;3471;49.678;8.388;2023-10-09T04:38:54;7.90;;;6.23;;
6864;SDS011;3471;49.678;8.388;2023-10-09T04:41:28;12.90;;;6.85;;
6864;SDS011;3471;49.678;8.388;2023-10-09T04:44:06;14.32;;;8.50;;
6864;SDS011;3471;49.678;8.388;2023-10-09T04:46:45;17.50;;;7.45;;
6864;SDS011;3471;49.678;8.388;2023-10-09T04:49:31;11.88;;;7.72;;
6864;SDS011;3471;49.678;8.388;2023-10-09T04:52:10;13.02;;;7.20;;
6864;SDS011;3471;49.678;8.388;2023-10-09T04:54:45;10.20;;;7.10;;
6864;SDS011;3471;49.678;8.388;2023-10-09T04:57:37;13.07;;;7.75;;
6864;SDS011;3471;49.678;8.388;2023-10-09T05:00:06;17.10;;;7.30;;
6864;SDS011;3471;49.678;8.388;2023-10-09T05:02:52;18.75;;;7.35;;
6864;SDS011;3471;49.678;8.388;2023-10-09T05:08:10;21.93;;;8.20;;
6864;SDS011;3471;49.678;8.388;2023-10-09T05:10:52;10.43;;;6.63;;
6864;SDS011;3471;49.678;8.388;2023-10-09T05:13:36;17.40;;;7.90;;
6864;SDS011;3471;49.678;8.388;2023-10-09T05:16:05;10.27;;;6.90;;
6864;SDS011;3471;49.678;8.388;2023-10-09T05:18:50;14.40;;;6.40;;
6864;SDS011;3471;49.678;8.388;2023-10-09T05:21:25;7.95;;;6.05;;
6864;SDS011;3471;49.678;8.388;2023-10-09T05:23:57;14.95;;;7.63;;
6864;SDS011;3471;49.678;8.388;2023-10-09T05:26:42;9.38;;;6.50;;
6864;SDS011;3471;49.678;8.388;2023-10-09T05:29:12;7.60;;;5.68;;
6864;SDS011;3471;49.678;8.388;2023-10-09T05:31:56;11.70;;;8.30;;
6864;SDS011;3471;49.678;8.388;2023-10-09T05:34:28;13.43;;;7.43;;
6864;SDS011;3471;49.678;8.388;2023-10-09T05:37:04;15.70;;;7.75;;
6864;SDS011;3471;49.678;8.388;2023-10-09T05:39:47;16.65;;;8.38;;
6864;SDS011;3471;49.678;8.388;2023-10-09T05:42:28;16.92;;;7.10;;
6864;SDS011;3471;49.678;8.388;2023-10-09T05:45:16;16.70;;;7.77;;
6864;SDS011;3471;49.678;8.388;2023-10-09T05:47:42;19.70;;;6.85;;
6864;SDS011;3471;49.678;8.388;2023-10-09T05:50:49;15.77;;;7.70;;
6864;SDS011;3471;49.678;8.388;2023-10-09T05:53:21;15.02;;;6.65;;
6864;SDS011;3471;49.678;8.388;2023-10-09T05:56:05;12.20;;;8.00;;
6864;SDS011;3471;49.678;8.388;2023-10-09T05:58:54;9.07;;;5.40;;
6864;SDS011;3471;49.678;8.388;2023-10-09T06:01:38;18.45;;;9.30;;
6864;SDS011;3471;49.678;8.388;2023-10-09T06:04:15;17.10;;;7.15;;
6864;SDS011;3471;49.678;8.388;2023-10-09T06:06:42;15.65;;;6.22;;
6864;SDS011;3471;49.678;8.388;2023-10-09T06:09:10;20.40;;;8.45;;
6864;SDS011;3471;49.678;8.388;2023-10-09T06:11:42;10.43;;;7.13;;
6864;SDS011;3471;49.678;8.388;2023-10-09T06:14:20;16.60;;;7.15;;
6864;SDS011;3471;49.678;8.388;2023-10-09T06:16:57;12.35;;;7.53;;
6864;SDS011;3471;49.678;8.388;2023-10-09T06:19:27;19.17;;;8.43;;
6864;SDS011;3471;49.678;8.388;2023-10-09T06:24:28;6.63;;;5.65;;
6864;SDS011;3471;49.678;8.388;2023-10-09T06:27:07;10.40;;;7.03;;
6864;SDS011;3471;49.678;8.388;2023-10-09T06:29:37;15.55;;;8.05;;
6864;SDS011;3471;49.678;8.388;2023-10-09T06:32:09;12.00;;;6.18;;
6864;SDS011;3471;49.678;8.388;2023-10-09T06:34:45;14.80;;;7.00;;
6864;SDS011;3471;49.678;8.388;2023-10-09T06:37:16;36.20;;;6.90;;
6864;SDS011;3471;49.678;8.388;2023-10-09T06:39:50;13.25;;;8.70;;
6864;SDS011;3471;49.678;8.388;2023-10-09T06:42:36;17.23;;;7.32;;
6864;SDS011;3471;49.678;8.388;2023-10-09T06:47:36;18.60;;;7.22;;
6864;SDS011;3471;49.678;8.388;2023-10-09T06:50:18;13.90;;;6.32;;
6864;SDS011;3471;49.678;8.388;2023-10-09T06:52:47;9.35;;;7.03;;
6864;SDS011;3471;49.678;8.388;2023-10-09T06:55:23;9.80;;;6.68;;
6864;SDS011;3471;49.678;8.388;2023-10-09T06:58:01;16.35;;;6.57;;
6864;SDS011;3471;49.678;8.388;2023-10-09T07:00:28;10.50;;;7.25;;
6864;SDS011;3471;49.678;8.388;2023-10-09T07:03:12;9.02;;;6.85;;
6864;SDS011;3471;49.678;8.388;2023-10-09T07:05:38;13.60;;;6.60;;
6864;SDS011;3471;49.678;8.388;2023-10-09T07:08:25;11.68;;;7.95;;
6864;SDS011;3471;49.678;8.388;2023-10-09T07:10:57;9.38;;;5.93;;
6864;SDS011;3471;49.678;8.388;2023-10-09T07:13:44;15.77;;;7.25;;
6864;SDS011;3471;49.678;8.388;2023-10-09T07:16:19;14.57;;;6.70;;
6864;SDS011;3471;49.678;8.388;2023-10-09T07:18:48;10.55;;;7.10;;
6864;SDS011;3471;49.678;8.388;2023-10-09T07:21:14;9.47;;;6.40;;
6864;SDS011;3471;49.678;8.388;2023-10-09T07:23:43;11.98;;;7.32;;
6864;SDS011;3471;49.678;8.388;2023-10-09T07:26:14;13.60;;;6.68;;
6864;SDS011;3471;49.678;8.388;2023-10-09T07:28:43;18.35;;;7.10;;
6864;SDS011;3471;49.678;8.388;2023-10-09T07:31:16;7.03;;;5.72;;
6864;SDS011;3471;49.678;8.388;2023-10-09T07:33:49;16.83;;;6.90;;
6864;SDS011;3471;49.678;8.388;2023-10-09T07:36:21;14.80;;;6.85;;
6864;SDS011;3471;49.678;8.388;2023-10-09T07:39:00;9.95;;;5.95;;
6864;SDS011;3471;49.678;8.388;2023-10-09T07:41:30;20.60;;;7.35;;
6864;SDS011;3471;49.678;8.388;2023-10-09T07:43:56;18.80;;;7.85;;
6864;SDS011;3471;49.678;8.388;2023-10-09T07:46:22;13.70;;;7.75;;
6864;SDS011;3471;49.678;8.388;2023-10-09T07:49:17;9.10;;;6.20;;
6864;SDS011;3471;49.678;8.388;2023-10-09T07:51:54;13.13;;;7.15;;
6864;SDS011;3471;49.678;8.388;2023-10-09T07:54:20;21.92;;;6.70;;
6864;SDS011;3471;49.678;8.388;2023-10-09T07:56:57;13.35;;;8.27;;
6864;SDS011;3471;49.678;8.388;2023-10-09T07:59:41;11.13;;;9.90;;
6864;SDS011;3471;49.678;8.388;2023-10-09T08:02:19;9.20;;;6.93;;
6864;SDS011;3471;49.678;8.388;2023-10-09T08:04:58;11.35;;;6.28;;
6864;SDS011;3471;49.678;8.388;2023-10-09T08:07:29;11.05;;;5.93;;
6864;SDS011;3471;49.678;8.388;2023-10-09T08:10:04;9.83;;;6.97;;
6864;SDS011;3471;49.678;8.388;2023-10-09T08:12:42;12.48;;;5.00;;
6864;SDS011;3471;49.678;8.388;2023-10-09T08:15:14;12.80;;;6.53;;
6864;SDS011;3471;49.678;8.388;2023-10-09T08:20:20;11.75;;;7.60;;
6864;SDS011;3471;49.678;8.388;2023-10-09T08:22:51;28.73;;;7.47;;
6864;SDS011;3471;49.678;8.388;2023-10-09T08:25:20;16.70;;;7.60;;
6864;SDS011;3471;49.678;8.388;2023-10-09T08:28:01;15.90;;;6.15;;
6864;SDS011;3471;49.678;8.388;2023-10-09T08:30:40;18.05;;;7.47;;
6864;SDS011;3471;49.678;8.388;2023-10-09T08:33:13;19.50;;;7.97;;
6864;SDS011;3471;49.678;8.388;2023-10-09T08:35:51;18.20;;;7.80;;
6864;SDS011;3471;49.678;8.388;2023-10-09T08:38:33;6.60;;;5.50;;
6864;SDS011;3471;49.678;8.388;2023-10-09T08:41:12;8.23;;;6.40;;
6864;SDS011;3471;49.678;8.388;2023-10-09T08:43:43;12.55;;;5.93;;
6864;SDS011;3471;49.678;8.388;2023-10-09T08:46:15;15.90;;;6.63;;
6864;SDS011;3471;49.678;8.388;2023-10-09T08:48:46;14.60;;;6.82;;
6864;SDS011;3471;49.678;8.388;2023-10-09T08:51:13;7.75;;;5.88;;
6864;SDS011;3471;49.678;8.388;2023-10-09T08:53:39;17.30;;;5.85;;
6864;SDS011;3471;49.678;8.388;2023-10-09T08:56:09;13.88;;;7.63;;
6864;SDS011;3471;49.678;8.388;2023-10-09T08:58:35;13.10;;;6.95;;
6864;SDS011;3471;49.678;8.388;2023-10-09T09:01:05;8.93;;;5.80;;
6864;SDS011;3471;49.678;8.388;2023-10-09T09:03:41;7.60;;;6.35;;
6864;SDS011;3471;49.678;8.388;2023-10-09T09:06:10;12.90;;;5.50;;
6864;SDS011;3471;49.678;8.388;2023-10-09T09:08:39;11.70;;;7.70;;
6864;SDS011;3471;49.678;8.388;2023-10-09T09:11:09;17.55;;;7.25;;
6864;SDS011;3471;49.678;8.388;2023-10-09T09:16:29;15.43;;;7.70;;
6864;SDS011;3471;49.678;8.388;2023-10-09T09:21:56;9.77;;;5.85;;
6864;SDS011;3471;49.678;8.388;2023-10-09T09:24:24;11.53;;;6.60;;
6864;SDS011;3471;49.678;8.388;2023-10-09T09:26:51;13.95;;;7.20;;
6864;SDS011;3471;49.678;8.388;2023-10-09T09:29:43;12.38;;;7.05;;
6864;SDS011;3471;49.678;8.388;2023-10-09T09:32:17;9.95;;;7.00;;
6864;SDS011;3471;49.678;8.388;2023-10-09T09:34:55;15.57;;;7.05;;
6864;SDS011;3471;49.678;8.388;2023-10-09T09:37:26;13.63;;;5.72;;
6864;SDS011;3471;49.678;8.388;2023-10-09T09:40:15;9.90;;;5.32;;
6864;SDS011;3471;49.678;8.388;2023-10-09T09:42:54;24.40;;;6.50;;
6864;SDS011;3471;49.678;8.388;2023-10-09T09:45:36;11.95;;;5.50;;
6864;SDS011;3471;49.678;8.388;2023-10-09T09:48:03;12.70;;;5.38;;
6864;SDS011;3471;49.678;8.388;2023-10-09T09:50:35;15.20;;;5.65;;
6864;SDS011;3471;49.678;8.388;2023-10-09T09:53:12;11.82;;;5.90;;
6864;SDS011;3471;49.678;8.388;2023-10-09T09:55:51;6.72;;;3.80;;
6864;SDS011;3471;49.678;8.388;2023-10-09T09:58:25;16.75;;;6.03;;
6864;SDS011;3471;49.678;8.388;2023-10-09T10:00:59;16.50;;;5.57;;
6864;SDS011;3471;49.678;8.388;2023-10-09T10:03:36;14.70;;;8.00;;
6864;SDS011;3471;49.678;8.388;2023-10-09T10:06:08;13.07;;;5.95;;
6864;SDS011;3471;49.678;8.388;2023-10-09T10:08:37;9.80;;;5.47;;
6864;SDS011;3471;49.678;8.388;2023-10-09T10:11:04;10.93;;;5.15;;
6864;SDS011;3471;49.678;8.388;2023-10-09T10:16:12;7.28;;;5.95;;
6864;SDS011;3471;49.678;8.388;2023-10-09T10:21:43;11.02;;;5.97;;
6864;SDS011;3471;49.678;8.388;2023-10-09T10:29:43;9.90;;;5.40;;
6864;SDS011;3471;49.678;8.388;2023-10-09T10:32:15;17.27;;;6.77;;
6864;SDS011;3471;49.678;8.388;2023-10-09T10:40:27;10.57;;;6.47;;
6864;SDS011;3471;49.678;8.388;2023-10-09T10:43:17;6.70;;;5.63;;
6864;SDS011;3471;49.678;8.388;2023-10-09T10:46:05;6.13;;;5.43;;
6864;SDS011;3471;49.678;8.388;2023-10-09T10:48:49;16.58;;;5.55;;
6864;SDS011;3471;49.678;8.388;2023-10-09T10:51:23;28.90;;;9.30;;
6864;SDS011;3471;49.678;8.388;2023-10-09T10:53:59;11.93;;;6.30;;
6864;SDS011;3471;49.678;8.388;2023-10-09T10:56:46;8.98;;;6.22;;
6864;SDS011;3471;49.678;8.388;2023-10-09T10:59:16;14.98;;;7.22;;
6864;SDS011;3471;49.678;8.388;2023-10-09T11:01:50;11.07;;;6.18;;
6864;SDS011;3471;49.678;8.388;2023-10-09T11:04:24;15.77;;;6.18;;
6864;SDS011;3471;49.678;8.388;2023-10-09T11:07:01;9.20;;;5.43;;
6864;SDS011;3471;49.678;8.388;2023-10-09T11:10:03;11.00;;;6.60;;
6864;SDS011;3471;49.678;8.388;2023-10-09T11:12:50;15.07;;;7.07;;
6864;SDS011;3471;49.678;8.388;2023-10-09T11:15:31;9.55;;;5.63;;
6864;SDS011;3471;49.678;8.388;2023-10-09T11:18:14;11.70;;;5.85;;
6864;SDS011;3471;49.678;8.388;2023-10-09T11:20:50;9.98;;;5.25;;
6864;SDS011;3471;49.678;8.388;2023-10-09T11:23:32;16.67;;;4.57;;
6864;SDS011;3471;49.678;8.388;2023-10-09T11:25:58;13.07;;;6.07;;
6864;SDS011;3471;49.678;8.388;2023-10-09T11:28:43;12.20;;;5.70;;
6864;SDS011;3471;49.678;8.388;2023-10-09T11:31:14;10.77;;;4.82;;
6864;SDS011;3471;49.678;8.388;2023-10-09T11:36:09;10.60;;;5.47;;
6864;SDS011;3471;49.678;8.388;2023-10-09T11:38:35;15.25;;;10.52;;
6864;SDS011;3471;49.678;8.388;2023-10-09T11:41:11;7.30;;;5.13;;
6864;SDS011;3471;49.678;8.388;2023-10-09T11:43:50;9.57;;;5.43;;
6864;SDS011;3471;49.678;8.388;2023-10-09T11:46:17;11.30;;;6.30;;
6864;SDS011;3471;49.678;8.388;2023-10-09T11:49:05;11.65;;;5.47;;
6864;SDS011;3471;49.678;8.388;2023-10-09T11:51:47;12.10;;;4.43;;
6864;SDS011;3471;49.678;8.388;2023-10-09T11:54:32;9.15;;;5.28;;
6864;SDS011;3471;49.678;8.388;2023-10-09T11:57:01;11.50;;;4.10;;
6864;SDS011;3471;49.678;8.388;2023-10-09T11:59:32;14.23;;;7.03;;
6864;SDS011;3471;49.678;8.388;2023-10-09T12:02:04;8.18;;;5.35;;
6864;SDS011;3471;49.678;8.388;2023-10-09T12:04:36;10.50;;;4.60;;
6864;SDS011;3471;49.678;8.388;2023-10-09T12:07:02;11.37;;;5.23;;
6864;SDS011;3471;49.678;8.388;2023-10-09T12:09:35;9.70;;;5.57;;
6864;SDS011;3471;49.678;8.388;2023-10-09T12:12:03;8.65;;;6.53;;
6864;SDS011;3471;49.678;8.388;2023-10-09T12:14:32;15.73;;;5.43;;
6864;SDS011;3471;49.678;8.388;2023-10-09T12:17:01;15.10;;;5.75;;
6864;SDS011;3471;49.678;8.388;2023-10-09T12:19:34;5.90;;;3.90;;
6864;SDS011;3471;49.678;8.388;2023-10-09T12:22:00;11.00;;;6.50;;
6864;SDS011;3471;49.678;8.388;2023-10-09T12:24:29;10.50;;;4.50;;
6864;SDS011;3471;49.678;8.388;2023-10-09T12:26:55;14.13;;;4.82;;
6864;SDS011;3471;49.678;8.388;2023-10-09T12:29:21;11.02;;;5.72;;
6864;SDS011;3471;49.678;8.388;2023-10-09T12:31:48;13.45;;;6.00;;
6864;SDS011;3471;49.678;8.388;2023-10-09T12:34:23;9.00;;;5.32;;
6864;SDS011;3471;49.678;8.388;2023-10-09T12:36:52;7.88;;;4.50;;
6864;SDS011;3471;49.678;8.388;2023-10-09T12:39:19;15.13;;;6.00;;
6864;SDS011;3471;49.678;8.388;2023-10-09T12:41:48;13.75;;;5.65;;
6864;SDS011;3471;49.678;8.388;2023-10-09T12:44:14;8.77;;;4.50;;
6864;SDS011;3471;49.678;8.388;2023-10-09T12:46:43;10.98;;;6.25;;
6864;SDS011;3471;49.678;8.388;2023-10-09T12:49:17;9.40;;;5.88;;
6864;SDS011;3471;49.678;8.388;2023-10-09T12:51:43;9.45;;;4.80;;
6864;SDS011;3471;49.678;8.388;2023-10-09T12:54:09;11.32;;;5.25;;
6864;SDS011;3471;49.678;8.388;2023-10-09T12:56:34;13.73;;;5.97;;
6864;SDS011;3471;49.678;8.388;2023-10-09T12:59:03;11.63;;;5.72;;
6864;SDS011;3471;49.678;8.388;2023-10-09T13:01:30;12.50;;;4.63;;
6864;SDS011;3471;49.678;8.388;2023-10-09T13:04:07;6.18;;;4.57;;
6864;SDS011;3471;49.678;8.388;2023-10-09T13:06:36;8.68;;;4.70;;
6864;SDS011;3471;49.678;8.388;2023-10-09T13:09:12;7.72;;;5.38;;
6864;SDS011;3471;49.678;8.388;2023-10-09T13:11:39;15.02;;;5.18;;
6864;SDS011;3471;49.678;8.388;2023-10-09T13:14:05;10.60;;;4.85;;
6864;SDS011;3471;49.678;8.388;2023-10-09T13:16:41;10.57;;;5.15;;
6864;SDS011;3471;49.678;8.388;2023-10-09T13:19:10;6.22;;;4.40;;
6864;SDS011;3471;49.678;8.388;2023-10-09T13:21:36;18.00;;;5.65;;
6864;SDS011;3471;49.678;8.388;2023-10-09T13:24:05;6.22;;;3.78;;
6864;SDS011;3471;49.678;8.388;2023-10-09T13:26:37;7.85;;;3.45;;
6864;SDS011;3471;49.678;8.388;2023-10-09T13:29:03;8.48;;;5.30;;
6864;SDS011;3471;49.678;8.388;2023-10-09T13:31:34;9.07;;;4.60;;
6864;SDS011;3471;49.678;8.388;2023-10-09T13:34:03;8.02;;;4.82;;
6864;SDS011;3471;49.678;8.388;2023-10-09T13:36:35;9.88;;;5.40;;
6864;SDS011;3471;49.678;8.388;2023-10-09T13:39:02;9.07;;;4.78;;
6864;SDS011;3471;49.678;8.388;2023-10-09T13:41:50;17.63;;;5.05;;
6864;SDS011;3471;49.678;8.388;2023-10-09T13:44:22;14.50;;;5.30;;
6864;SDS011;3471;49.678;8.388;2023-10-09T13:46:55;6.57;;;4.30;;
6864;SDS011;3471;49.678;8.388;2023-10-09T13:49:22;17.80;;;6.23;;
6864;SDS011;3471;49.678;8.388;2023-10-09T13:51:48;12.38;;;6.72;;
6864;SDS011;3471;49.678;8.388;2023-10-09T13:54:15;5.38;;;4.15;;
6864;SDS011;3471;49.678;8.388;2023-10-09T13:56:54;8.23;;;5.07;;
6864;SDS011;3471;49.678;8.388;2023-10-09T13:59:23;6.57;;;5.32;;
6864;SDS011;3471;49.678;8.388;2023-10-09T14:01:51;14.60;;;5.20;;
6864;SDS011;3471;49.678;8.388;2023-10-09T14:04:19;7.03;;;4.63;;
6864;SDS011;3471;49.678;8.388;2023-10-09T14:06:49;9.27;;;5.27;;
6864;SDS011;3471;49.678;8.388;2023-10-09T14:09:22;9.45;;;4.90;;
6864;SDS011;3471;49.678;8.388;2023-10-09T14:12:03;10.02;;;4.88;;
6864;SDS011;3471;49.678;8.388;2023-10-09T14:14:34;11.35;;;4.97;;
6864;SDS011;3471;49.678;8.388;2023-10-09T14:17:12;9.07;;;5.20;;
6864;SDS011;3471;49.678;8.388;2023-10-09T14:19:41;7.60;;;4.03;;
6864;SDS011;3471;49.678;8.388;2023-10-09T14:22:12;6.05;;;5.10;;
6864;SDS011;3471;49.678;8.388;2023-10-09T14:24:41;13.48;;;5.60;;
6864;SDS011;3471;49.678;8.388;2023-10-09T14:27:10;11.07;;;5.03;;
6864;SDS011;3471;49.678;8.388;2023-10-09T14:29:45;10.88;;;6.10;;
6864;SDS011;3471;49.678;8.388;2023-10-09T14:32:11;7.68;;;4.65;;
6864;SDS011;3471;49.678;8.388;2023-10-09T14:34:43;9.65;;;6.65;;
6864;SDS011;3471;49.678;8.388;2023-10-09T14:37:16;7.85;;;4.75;;
6864;SDS011;3471;49.678;8.388;2023-10-09T14:39:44;9.02;;;5.38;;
6864;SDS011;3471;49.678;8.388;2023-10-09T14:42:16;11.35;;;5.10;;
6864;SDS011;3471;49.678;8.388;2023-10-09T14:44:42;11.52;;;5.32;;
6864;SDS011;3471;49.678;8.388;2023-10-09T14:47:12;7.20;;;5.15;;
6864;SDS011;3471;49.678;8.388;2023-10-09T14:49:41;11.80;;;5.50;;
6864;SDS011;3471;49.678;8.388;2023-10-09T14:52:11;10.40;;;5.03;;
6864;SDS011;3471;49.678;8.388;2023-10-09T14:54:41;8.35;;;5.55;;
6864;SDS011;3471;49.678;8.388;2023-10-09T14:57:07;7.03;;;4.30;;
6864;SDS011;3471;49.678;8.388;2023-10-09T14:59:33;13.02;;;6.13;;
6864;SDS011;3471;49.678;8.388;2023-10-09T15:04:24;10.85;;;5.93;;
6864;SDS011;3471;49.678;8.388;2023-10-09T15:06:53;11.18;;;5.18;;
6864;SDS011;3471;49.678;8.388;2023-10-09T15:09:18;12.43;;;4.97;;
6864;SDS011;3471;49.678;8.388;2023-10-09T15:11:48;10.60;;;5.30;;
6864;SDS011;3471;49.678;8.388;2023-10-09T15:14:15;6.47;;;4.65;;
6864;SDS011;3471;49.678;8.388;2023-10-09T15:16:41;10.10;;;5.63;;
6864;SDS011;3471;49.678;8.388;2023-10-09T15:19:11;9.88;;;5.20;;
6864;SDS011;3471;49.678;8.388;2023-10-09T15:21:37;8.13;;;5.53;;
6864;SDS011;3471;49.678;8.388;2023-10-09T15:24:09;10.30;;;6.20;;
6864;SDS011;3471;49.678;8.388;2023-10-09T15:26:47;7.43;;;4.65;;
6864;SDS011;3471;49.678;8.388;2023-10-09T15:29:26;8.98;;;4.90;;
6864;SDS011;3471;49.678;8.388;2023-10-09T15:31:58;10.93;;;5.50;;
6864;SDS011;3471;49.678;8.388;2023-10-09T15:34:39;6.20;;;4.68;;
6864;SDS011;3471;49.678;8.388;2023-10-09T15:37:06;19.27;;;5.80;;
6864;SDS011;3471;49.678;8.388;2023-10-09T15:39:35;7.38;;;5.30;;
6864;SDS011;3471;49.678;8.388;2023-10-09T15:42:01;8.60;;;5.90;;
6864;SDS011;3471;49.678;8.388;2023-10-09T15:44:31;9.70;;;5.45;;
6864;SDS011;3471;49.678;8.388;2023-10-09T15:47:01;11.45;;;5.90;;
6864;SDS011;3471;49.678;8.388;2023-10-09T15:49:28;9.88;;;6.10;;
6864;SDS011;3471;49.678;8.388;2023-10-09T15:51:58;7.65;;;5.10;;
6864;SDS011;3471;49.678;8.388;2023-10-09T15:54:26;11.77;;;4.93;;
6864;SDS011;3471;49.678;8.388;2023-10-09T15:56:52;12.23;;;5.70;;
6864;SDS011;3471;49.678;8.388;2023-10-09T15:59:19;8.90;;;7.20;;
6864;SDS011;3471;49.678;8.388;2023-10-09T16:01:45;8.25;;;6.43;;
6864;SDS011;3471;49.678;8.388;2023-10-09T16:04:10;12.13;;;5.60;;
6864;SDS011;3471;49.678;8.388;2023-10-09T16:06:36;12.60;;;5.77;;
6864;SDS011;3471;49.678;8.388;2023-10-09T16:09:05;10.63;;;6.05;;
6864;SDS011;3471;49.678;8.388;2023-10-09T16:11:31;20.65;;;7.47;;
6864;SDS011;3471;49.678;8.388;2023-10-09T16:13:59;11.48;;;5.88;;
6864;SDS011;3471;49.678;8.388;2023-10-09T16:16:28;9.70;;;5.77;;
6864;SDS011;3471;49.678;8.388;2023-10-09T16:18:55;9.15;;;6.90;;
6864;SDS011;3471;49.678;8.388;2023-10-09T16:21:23;9.02;;;6.47;;
6864;SDS011;3471;49.678;8.388;2023-10-09T16:23:50;15.70;;;6.85;;